createdAt,value
2017-11-19T00:02:43.113Z,2.90
2017-11-19T00:05:45.025Z,2.90
2017-11-19T00:08:47.027Z,2.80
2017-11-19T00:11:49.017Z,2.80
2017-11-19T00:14:51.053Z,2.80
2017-11-19T00:17:53.008Z,2.80
2017-11-19T00:20:54.980Z,2.70
2017-11-19T00:23:56.947Z,2.70
2017-11-19T00:26:58.894Z,2.70
2017-11-19T00:30:00.847Z,2.70
2017-11-19T00:33:03.551Z,2.70
2017-11-19T00:36:06.315Z,2.70
2017-11-19T00:39:08.299Z,2.70
2017-11-19T00:42:10.194Z,2.70
2017-11-19T00:45:12.170Z,2.70
2017-11-19T00:48:14.182Z,2.60
2017-11-19T00:51:16.900Z,2.50
2017-11-19T00:54:18.853Z,2.50
2017-11-19T00:57:21.746Z,2.40
2017-11-19T01:00:23.666Z,2.40
2017-11-19T01:03:25.617Z,2.40
2017-11-19T01:06:27.513Z,2.40
2017-11-19T01:09:30.276Z,2.30
2017-11-19T01:12:32.279Z,2.30
2017-11-19T01:15:34.260Z,2.30
2017-11-19T01:18:36.918Z,2.30
2017-11-19T01:21:38.835Z,2.30
2017-11-19T01:24:40.821Z,2.30
2017-11-19T01:27:42.835Z,2.30
2017-11-19T01:30:45.497Z,2.30
2017-11-19T01:33:47.582Z,2.20
2017-11-19T01:36:49.501Z,2.30
2017-11-19T01:39:52.280Z,2.50
2017-11-19T01:42:54.214Z,2.50
2017-11-19T01:45:56.266Z,2.60
2017-11-19T01:48:58.926Z,2.90
2017-11-19T01:52:00.929Z,2.90
2017-11-19T01:55:02.919Z,3.00
2017-11-19T01:58:05.628Z,3.20
2017-11-19T02:01:08.307Z,3.20
2017-11-19T02:04:10.312Z,3.20
2017-11-19T02:07:12.967Z,3.30
2017-11-19T02:10:14.888Z,3.20
2017-11-19T02:13:16.856Z,3.30
2017-11-19T02:16:18.859Z,3.40
2017-11-19T02:19:21.647Z,3.40
2017-11-19T02:22:23.635Z,3.40
2017-11-19T02:25:25.623Z,3.40
2017-11-19T02:28:27.520Z,3.40
2017-11-19T02:31:30.292Z,3.50
2017-11-19T02:34:32.610Z,3.50
2017-11-19T02:37:34.566Z,3.60
2017-11-19T02:40:36.548Z,3.60
2017-11-19T02:43:38.566Z,3.70
2017-11-19T02:46:40.532Z,3.70
2017-11-19T02:49:43.216Z,3.70
2017-11-19T02:52:45.140Z,3.70
2017-11-19T02:55:47.056Z,3.70
2017-11-19T02:58:49.094Z,3.70
2017-11-19T03:01:51.985Z,3.80
2017-11-19T03:04:54.669Z,3.80
2017-11-19T03:07:56.582Z,3.70
2017-11-19T03:10:59.293Z,3.70
2017-11-19T03:14:01.246Z,3.70
2017-11-19T03:17:04.112Z,3.80
2017-11-19T03:20:06.118Z,3.70
2017-11-19T03:23:08.043Z,3.70
2017-11-19T03:26:09.959Z,3.70
2017-11-19T03:29:11.887Z,3.70
2017-11-19T03:32:14.676Z,3.70
2017-11-19T03:35:16.628Z,3.70
2017-11-19T03:38:18.620Z,3.70
2017-11-19T03:41:20.531Z,3.70
2017-11-19T03:44:23.212Z,3.80
2017-11-19T03:47:25.127Z,3.80
2017-11-19T03:50:27.825Z,3.80
2017-11-19T03:53:30.538Z,3.80
2017-11-19T03:56:32.671Z,3.70
2017-11-19T03:59:34.748Z,3.80
2017-11-19T04:02:36.750Z,3.70
2017-11-19T04:05:38.817Z,3.70
2017-11-19T04:08:40.705Z,3.60
2017-11-19T04:11:43.435Z,3.40
2017-11-19T04:14:46.112Z,3.40
2017-11-19T04:17:48.033Z,3.40
2017-11-19T04:20:49.951Z,3.40
2017-11-19T04:23:52.071Z,3.40
2017-11-19T04:26:53.994Z,3.40
2017-11-19T04:29:55.918Z,3.40
2017-11-19T04:32:57.840Z,3.50
2017-11-19T04:35:59.770Z,3.50
2017-11-19T04:39:01.782Z,3.60
2017-11-19T04:42:04.493Z,3.60
2017-11-19T04:45:07.154Z,3.70
2017-11-19T04:48:09.902Z,3.70
2017-11-19T04:51:12.557Z,3.70
2017-11-19T04:54:14.470Z,3.60
2017-11-19T04:57:17.267Z,3.60
2017-11-19T05:00:19.227Z,3.60
2017-11-19T05:03:21.200Z,3.60
2017-11-19T05:06:23.154Z,3.50
2017-11-19T05:09:25.085Z,3.40
2017-11-19T05:12:27.032Z,3.40
2017-11-19T05:15:29.056Z,3.40
2017-11-19T05:18:31.247Z,3.50
2017-11-19T05:21:33.222Z,3.50
2017-11-19T05:24:35.195Z,3.40
2017-11-19T05:27:37.102Z,3.40
2017-11-19T05:30:39.823Z,3.30
2017-11-19T05:33:41.756Z,3.20
2017-11-19T05:36:43.684Z,3.20
2017-11-19T05:39:46.380Z,3.20
2017-11-19T05:42:48.454Z,3.20
2017-11-19T05:45:51.115Z,3.40
2017-11-19T05:48:53.074Z,3.40
2017-11-19T05:51:54.998Z,3.60
2017-11-19T05:54:57.064Z,3.60
2017-11-19T05:57:59.087Z,3.60
2017-11-19T06:01:01.836Z,3.70
2017-11-19T06:04:03.743Z,3.70
2017-11-19T06:07:05.722Z,3.80
2017-11-19T06:10:07.646Z,3.70
2017-11-19T06:13:10.862Z,3.60
2017-11-19T06:16:12.788Z,3.60
2017-11-19T06:19:14.715Z,3.50
2017-11-19T06:22:17.500Z,3.40
2017-11-19T06:25:19.475Z,3.40
2017-11-19T06:28:21.458Z,3.30
2017-11-19T06:31:23.442Z,3.30
2017-11-19T06:34:25.407Z,3.20
2017-11-19T06:37:27.326Z,3.20
2017-11-19T06:40:30.227Z,3.30
2017-11-19T06:43:33.002Z,3.40
2017-11-19T06:46:34.999Z,3.40
2017-11-19T06:49:37.065Z,3.60
2017-11-19T06:52:39.066Z,3.70
2017-11-19T06:55:40.999Z,3.80
2017-11-19T06:58:42.902Z,3.80
2017-11-19T07:01:44.918Z,3.80
2017-11-19T07:04:46.835Z,3.80
2017-11-19T07:07:48.859Z,3.80
2017-11-19T07:10:50.888Z,3.80
2017-11-19T07:13:53.664Z,3.80
2017-11-19T07:16:55.631Z,3.80
2017-11-19T07:19:57.631Z,3.80
2017-11-19T07:22:59.612Z,3.90
2017-11-19T07:26:01.556Z,3.90
2017-11-19T07:29:03.582Z,4.10
2017-11-19T07:32:05.783Z,4.20
2017-11-19T07:35:08.576Z,4.40
2017-11-19T07:38:10.492Z,4.30
2017-11-19T07:41:12.388Z,4.50
2017-11-19T07:44:14.333Z,4.60
2017-11-19T07:47:17.126Z,4.80
2017-11-19T07:50:19.819Z,4.70
2017-11-19T07:53:23.239Z,4.60
2017-11-19T07:56:25.225Z,4.60
2017-11-19T07:59:27.915Z,4.50
2017-11-19T08:02:30.763Z,4.60
2017-11-19T08:05:33.569Z,4.60
2017-11-19T08:08:35.515Z,4.80
2017-11-19T08:11:38.304Z,7.00
2017-11-19T08:14:40.282Z,7.00
2017-11-19T08:17:42.197Z,7.40
2017-11-19T08:20:44.188Z,7.10
2017-11-19T08:23:46.209Z,6.80
2017-11-19T08:26:48.220Z,6.50
2017-11-19T08:29:50.319Z,6.30
2017-11-19T08:32:53.001Z,5.90
2017-11-19T08:35:54.986Z,5.90
2017-11-19T08:38:56.982Z,5.80
2017-11-19T08:41:59.681Z,6.40
2017-11-19T08:45:02.401Z,7.20
2017-11-19T08:48:04.440Z,7.20
2017-11-19T08:51:06.438Z,8.00
2017-11-19T08:54:08.409Z,7.90
2017-11-19T08:57:10.351Z,7.70
2017-11-19T09:00:12.248Z,7.90
2017-11-19T09:03:14.268Z,9.00
2017-11-19T09:06:16.230Z,10.50
2017-11-19T09:09:18.226Z,11.00
2017-11-19T09:12:20.197Z,10.30
2017-11-19T09:15:22.116Z,9.40
2017-11-19T09:18:24.892Z,7.70
2017-11-19T09:21:26.802Z,7.70
2017-11-19T09:24:29.587Z,6.60
2017-11-19T09:27:31.534Z,6.60
2017-11-19T09:30:33.554Z,6.30
2017-11-19T09:33:35.536Z,6.10
2017-11-19T09:36:37.458Z,6.00
2017-11-19T09:39:39.379Z,6.00
2017-11-19T09:42:41.293Z,6.10
2017-11-19T09:45:44.027Z,6.40
2017-11-19T09:48:45.923Z,6.30
2017-11-19T09:51:47.959Z,6.60
2017-11-19T09:54:50.650Z,6.60
2017-11-19T09:57:52.585Z,6.60
2017-11-19T10:00:54.668Z,6.60
2017-11-19T10:03:56.690Z,6.40
2017-11-19T10:06:58.683Z,6.30
2017-11-19T10:10:00.666Z,6.20
2017-11-19T10:13:03.542Z,6.30
2017-11-19T10:16:05.538Z,6.50
2017-11-19T10:19:07.522Z,8.50
2017-11-19T10:22:10.330Z,12.70
2017-11-19T10:25:12.298Z,12.70
2017-11-19T10:28:14.299Z,14.70
2017-11-19T10:31:16.997Z,14.90
2017-11-19T10:34:18.946Z,14.90
2017-11-19T10:37:20.975Z,14.90
2017-11-19T10:40:23.772Z,14.70
2017-11-19T10:43:26.448Z,13.50
2017-11-19T10:46:28.563Z,13.50
2017-11-19T10:49:31.344Z,11.20
2017-11-19T10:52:33.323Z,11.20
2017-11-19T10:55:35.271Z,10.70
2017-11-19T10:58:37.279Z,11.10
2017-11-19T11:01:39.288Z,12.00
2017-11-19T11:04:41.256Z,13.30
2017-11-19T11:07:43.170Z,13.40
2017-11-19T11:10:45.962Z,11.10
2017-11-19T11:13:47.933Z,11.10
2017-11-19T11:16:49.878Z,9.90
2017-11-19T11:19:51.809Z,9.10
2017-11-19T11:22:53.745Z,8.60
2017-11-19T11:25:55.668Z,8.20
2017-11-19T11:28:57.656Z,7.90
2017-11-19T11:31:59.609Z,7.70
2017-11-19T11:35:01.598Z,7.50
2017-11-19T11:38:03.698Z,7.40
2017-11-19T11:41:05.701Z,7.30
2017-11-19T11:44:08.365Z,7.40
2017-11-19T11:47:10.357Z,7.40
2017-11-19T11:50:12.331Z,7.50
2017-11-19T11:53:14.266Z,7.60
2017-11-19T11:56:17.055Z,7.40
2017-11-19T11:59:19.747Z,7.20
2017-11-19T12:02:21.735Z,7.20
2017-11-19T12:05:24.499Z,6.80
2017-11-19T12:08:26.515Z,6.70
2017-11-19T12:11:28.499Z,6.60
2017-11-19T12:14:30.384Z,6.50
2017-11-19T12:17:32.339Z,6.40
2017-11-19T12:20:34.316Z,6.50
2017-11-19T12:23:36.275Z,6.40
2017-11-19T12:26:38.194Z,6.40
2017-11-19T12:29:40.127Z,6.60
2017-11-19T12:32:42.094Z,8.40
2017-11-19T12:35:44.885Z,14.10
2017-11-19T12:38:46.793Z,14.10
2017-11-19T12:41:49.473Z,15.30
2017-11-19T12:44:51.410Z,14.30
2017-11-19T12:47:53.426Z,12.80
2017-11-19T12:50:56.087Z,10.00
2017-11-19T12:53:58.083Z,10.00
2017-11-19T12:57:00.098Z,9.00
2017-11-19T13:00:02.787Z,7.90
2017-11-19T13:03:04.676Z,7.80
2017-11-19T13:06:06.651Z,7.50
2017-11-19T13:09:09.350Z,7.10
2017-11-19T13:12:11.333Z,7.00
2017-11-19T13:15:13.334Z,7.00
2017-11-19T13:18:16.897Z,6.80
2017-11-19T13:21:18.803Z,6.80
2017-11-19T13:24:20.743Z,6.70
2017-11-19T13:27:22.894Z,6.70
2017-11-19T13:30:24.871Z,6.80
2017-11-19T13:33:26.833Z,7.00
2017-11-19T13:36:28.813Z,8.60
2017-11-19T13:39:30.835Z,9.70
2017-11-19T13:42:33.617Z,9.90
2017-11-19T13:45:35.536Z,9.90
2017-11-19T13:48:37.593Z,10.00
2017-11-19T13:51:40.523Z,9.70
2017-11-19T13:54:43.210Z,8.60
2017-11-19T13:57:45.274Z,8.60
2017-11-19T14:00:48.012Z,7.80
2017-11-19T14:03:49.906Z,7.80
2017-11-19T14:06:51.951Z,7.50
2017-11-19T14:09:53.849Z,7.20
2017-11-19T14:12:56.537Z,6.90
2017-11-19T14:15:59.199Z,6.80
2017-11-19T14:19:01.138Z,6.70
2017-11-19T14:22:03.050Z,6.60
2017-11-19T14:25:04.984Z,6.50
2017-11-19T14:28:07.650Z,6.50
2017-11-19T14:31:09.636Z,6.50
2017-11-19T14:34:11.643Z,6.60
2017-11-19T14:37:13.619Z,6.60
2017-11-19T14:40:15.818Z,6.60
2017-11-19T14:43:17.792Z,6.70
2017-11-19T14:46:19.787Z,6.90
2017-11-19T14:49:21.874Z,7.10
2017-11-19T14:52:24.652Z,7.40
2017-11-19T14:55:26.659Z,7.40
2017-11-19T14:58:29.347Z,7.50
2017-11-19T15:01:31.307Z,7.40
2017-11-19T15:04:33.315Z,7.30
2017-11-19T15:07:35.232Z,7.30
2017-11-19T15:10:37.128Z,7.20
2017-11-19T15:13:39.098Z,7.20
2017-11-19T15:16:42.858Z,7.10
2017-11-19T15:19:44.972Z,7.00
2017-11-19T15:22:48.506Z,6.90
2017-11-19T15:25:51.270Z,6.90
2017-11-19T15:28:53.290Z,6.90
2017-11-19T15:31:56.018Z,6.80
2017-11-19T15:34:57.912Z,6.80
2017-11-19T15:37:59.930Z,6.90
2017-11-19T15:41:01.899Z,7.40
2017-11-19T15:44:04.329Z,7.60
2017-11-19T15:47:07.010Z,7.40
2017-11-19T15:50:08.958Z,7.40
2017-11-19T15:53:10.880Z,7.20
2017-11-19T15:56:12.824Z,7.00
2017-11-19T15:59:14.741Z,6.80
2017-11-19T16:02:16.690Z,6.70
2017-11-19T16:05:18.738Z,6.60
2017-11-19T16:08:21.500Z,6.40
2017-11-19T16:11:23.389Z,6.30
2017-11-19T16:14:25.316Z,6.30
2017-11-19T16:17:27.238Z,6.30
2017-11-19T16:20:29.251Z,6.20
2017-11-19T16:23:31.560Z,6.20
2017-11-19T16:26:34.377Z,6.00
2017-11-19T16:29:36.297Z,6.00
2017-11-19T16:32:38.340Z,5.90
2017-11-19T16:35:40.265Z,5.90
2017-11-19T16:38:42.394Z,5.90
2017-11-19T16:41:45.090Z,6.00
2017-11-19T16:44:47.025Z,6.00
2017-11-19T16:47:48.935Z,6.00
2017-11-19T16:50:51.261Z,6.00
2017-11-19T16:53:54.032Z,6.10
2017-11-19T16:56:56.041Z,6.00
2017-11-19T16:59:58.039Z,6.00
2017-11-19T17:03:00.938Z,6.10
2017-11-19T17:06:03.702Z,6.10
2017-11-19T17:09:05.644Z,6.10
2017-11-19T17:12:07.545Z,6.10
2017-11-19T17:15:09.462Z,6.10
2017-11-19T17:18:11.468Z,6.10
2017-11-19T17:21:14.185Z,5.90
2017-11-19T17:24:16.129Z,5.90
2017-11-19T17:27:18.208Z,5.80
2017-11-19T17:30:20.131Z,5.80
2017-11-19T17:33:22.833Z,5.80
2017-11-19T17:36:24.839Z,5.70
2017-11-19T17:39:26.858Z,5.80
2017-11-19T17:42:28.785Z,5.80
2017-11-19T17:45:31.479Z,5.70
2017-11-19T17:48:34.242Z,5.70
2017-11-19T17:51:36.167Z,5.70
2017-11-19T17:54:39.026Z,5.60
2017-11-19T17:57:40.956Z,5.60
2017-11-19T18:00:42.883Z,5.70
2017-11-19T18:03:44.827Z,5.70
2017-11-19T18:06:46.779Z,5.70
2017-11-19T18:09:48.725Z,5.70
2017-11-19T18:12:50.648Z,5.70
2017-11-19T18:15:53.344Z,5.60
2017-11-19T18:18:55.323Z,5.60
2017-11-19T18:21:57.380Z,5.70
2017-11-19T18:24:59.400Z,5.70
2017-11-19T18:28:02.180Z,5.70
2017-11-19T18:31:04.146Z,5.70
2017-11-19T18:34:06.082Z,5.70
2017-11-19T18:37:08.771Z,5.70
2017-11-19T18:40:11.477Z,5.60
2017-11-19T18:43:14.174Z,5.60
2017-11-19T18:46:16.987Z,5.50
2017-11-19T18:49:19.664Z,5.40
2017-11-19T18:52:21.613Z,5.40
2017-11-19T18:55:24.395Z,5.40
2017-11-19T18:58:26.337Z,5.50
2017-11-19T19:01:29.115Z,5.50
2017-11-19T19:04:31.120Z,5.50
2017-11-19T19:07:33.890Z,5.60
2017-11-19T19:10:35.905Z,5.60
2017-11-19T19:13:38.609Z,5.60
2017-11-19T19:16:41.379Z,5.50
2017-11-19T19:19:43.415Z,5.50
2017-11-19T19:22:45.445Z,5.50
2017-11-19T19:25:47.529Z,5.50
2017-11-19T19:28:49.487Z,5.50
2017-11-19T19:31:51.402Z,5.50
2017-11-19T19:34:53.375Z,5.40
2017-11-19T19:37:55.276Z,5.50
2017-11-19T19:40:57.224Z,5.50
2017-11-19T19:43:59.260Z,5.50
2017-11-19T19:47:01.947Z,5.40
2017-11-19T19:50:03.907Z,5.40
2017-11-19T19:53:05.857Z,5.40
2017-11-19T19:56:08.618Z,5.40
2017-11-19T19:59:10.817Z,5.40
2017-11-19T20:02:13.518Z,5.40
2017-11-19T20:05:16.314Z,5.40
2017-11-19T20:08:18.219Z,5.40
2017-11-19T20:11:20.153Z,5.40
2017-11-19T20:14:22.068Z,5.40
2017-11-19T20:17:24.785Z,5.50
2017-11-19T20:20:27.554Z,5.50
2017-11-19T20:23:29.551Z,5.40
2017-11-19T20:26:32.216Z,5.40
2017-11-19T20:29:34.166Z,5.40
2017-11-19T20:32:36.106Z,5.40
2017-11-19T20:35:38.040Z,5.30
2017-11-19T20:38:39.965Z,5.40
2017-11-19T20:41:41.952Z,5.40
2017-11-19T20:44:43.860Z,5.40
2017-11-19T20:47:46.651Z,5.30
2017-11-19T20:50:49.399Z,5.30
2017-11-19T20:53:51.423Z,5.30
2017-11-19T20:56:53.328Z,5.30
2017-11-19T20:59:56.086Z,5.30
2017-11-19T21:02:57.979Z,5.30
2017-11-19T21:05:59.948Z,5.30
2017-11-19T21:09:01.867Z,5.20
2017-11-19T21:12:04.641Z,5.30
2017-11-19T21:15:06.555Z,5.20
2017-11-19T21:18:09.340Z,5.10
2017-11-19T21:21:11.331Z,5.10
2017-11-19T21:24:14.101Z,5.10
2017-11-19T21:27:16.018Z,5.10
2017-11-19T21:30:18.706Z,5.20
2017-11-19T21:33:20.703Z,5.10
2017-11-19T21:36:23.478Z,5.10
2017-11-19T21:39:25.398Z,5.10
2017-11-19T21:42:27.349Z,5.20
2017-11-19T21:45:29.321Z,5.10
2017-11-19T21:48:31.325Z,5.10
2017-11-19T21:51:33.249Z,5.10
2017-11-19T21:54:35.322Z,5.10
2017-11-19T21:57:37.271Z,5.10
2017-11-19T22:00:39.232Z,5.10
2017-11-19T22:03:41.172Z,5.10
2017-11-19T22:06:43.197Z,5.10
2017-11-19T22:09:45.263Z,5.10
2017-11-19T22:12:47.211Z,5.10
2017-11-19T22:15:49.981Z,5.20
2017-11-19T22:18:51.947Z,5.10
2017-11-19T22:21:53.869Z,5.20
2017-11-19T22:24:56.634Z,5.30
2017-11-19T22:27:58.550Z,5.30
2017-11-19T22:31:00.516Z,5.30
2017-11-19T22:34:02.452Z,5.30
2017-11-19T22:37:04.487Z,5.30
2017-11-19T22:40:06.403Z,5.30
2017-11-19T22:43:08.463Z,5.20
2017-11-19T22:46:11.152Z,5.20
2017-11-19T22:49:13.112Z,5.20
2017-11-19T22:52:15.032Z,5.20
2017-11-19T22:55:17.746Z,5.20
2017-11-19T22:58:20.499Z,5.10
2017-11-19T23:01:22.725Z,5.10
2017-11-19T23:04:25.523Z,5.10
2017-11-19T23:07:27.444Z,5.00
2017-11-19T23:10:29.335Z,5.00
2017-11-19T23:13:31.267Z,5.00
2017-11-19T23:16:34.768Z,4.90
2017-11-19T23:19:36.737Z,4.90
2017-11-19T23:22:38.662Z,4.90
2017-11-19T23:25:41.362Z,4.80
2017-11-19T23:28:44.043Z,4.80
2017-11-19T23:31:46.003Z,4.80
2017-11-19T23:34:48.019Z,4.90
2017-11-19T23:37:49.992Z,4.90
2017-11-19T23:40:52.054Z,4.80
2017-11-19T23:43:53.971Z,4.90
2017-11-19T23:46:56.125Z,4.80
2017-11-19T23:49:58.043Z,4.80
2017-11-19T23:53:00.722Z,4.80
2017-11-19T23:56:02.695Z,4.80
2017-11-19T23:59:04.688Z,4.80
